Time;durP1;ratioP1;P1;durP2;ratioP2;P2;SDS_P1;SDS_P2;PMS_P1;PMS_P2;Temp;Humidity;BMP_temperature;BMP_pressure;BME280_temperature;BME280_humidity;BME280_pressure;Samples;Min_cycle;Max_cycle;Signal;HPM_P1;HPM_P2
2022/01/09 00:00:09;;;;;;;129.07;53.17;;;0.20;99.90;;;;;;4972482;28;20042;-76
2022/01/09 00:02:35;;;;;;;117.10;50.25;;;0.30;99.90;;;;;;4973555;28;20019;-75
2022/01/09 00:05:00;;;;;;;86.78;41.10;;;0.30;99.90;;;;;;4973551;28;20031;-75
2022/01/09 00:07:26;;;;;;;89.93;41.03;;;0.30;99.90;;;;;;4973591;28;20031;-76
2022/01/09 00:09:52;;;;;;;84.53;38.88;;;0.30;99.90;;;;;;4972466;28;20031;-76
2022/01/09 00:12:18;;;;;;;87.18;41.70;;;0.30;99.90;;;;;;4973479;28;20038;-75
2022/01/09 00:14:44;;;;;;;101.50;43.10;;;0.30;99.90;;;;;;4973036;28;20381;-76
2022/01/09 00:17:09;;;;;;;103.35;46.95;;;0.30;99.90;;;;;;4973795;28;20073;-76
2022/01/09 00:19:35;;;;;;;121.68;51.33;;;0.30;99.90;;;;;;4973651;28;20430;-76
2022/01/09 00:22:01;;;;;;;118.70;51.15;;;0.30;99.90;;;;;;4972401;28;20428;-76
2022/01/09 00:24:27;;;;;;;110.45;47.25;;;0.30;99.90;;;;;;4973633;28;20383;-76
2022/01/09 00:26:53;;;;;;;113.60;47.60;;;0.30;99.90;;;;;;4973942;28;20532;-75
2022/01/09 00:29:19;;;;;;;103.35;45.50;;;0.30;99.90;;;;;;4973173;28;20418;-76
2022/01/09 00:31:44;;;;;;;92.53;42.20;;;0.30;99.90;;;;;;4973335;28;20034;-76
2022/01/09 00:34:10;;;;;;;94.57;44.50;;;0.40;99.90;;;;;;4972783;28;20031;-76
2022/01/09 00:36:36;;;;;;;91.50;43.40;;;0.40;99.90;;;;;;4971973;28;20098;-75
2022/01/09 00:39:02;;;;;;;98.00;44.92;;;0.40;99.90;;;;;;4972268;28;20061;-75
2022/01/09 00:41:28;;;;;;;106.28;48.13;;;0.40;99.90;;;;;;4971778;28;20435;-75
2022/01/09 00:43:54;;;;;;;110.57;48.55;;;0.40;99.90;;;;;;4971632;28;20050;-75
2022/01/09 00:46:20;;;;;;;105.65;45.13;;;0.40;99.90;;;;;;4971739;28;20019;-75
2022/01/09 00:48:45;;;;;;;104.72;45.58;;;0.40;99.90;;;;;;4972163;28;20023;-75
2022/01/09 00:51:11;;;;;;;91.28;42.65;;;0.40;99.90;;;;;;4971861;28;20382;-75
2022/01/09 00:53:37;;;;;;;85.55;40.00;;;0.40;99.90;;;;;;4971935;28;20465;-75
2022/01/09 00:56:03;;;;;;;86.22;40.42;;;0.50;99.90;;;;;;4971763;28;20513;-75
2022/01/09 00:58:29;;;;;;;94.90;45.03;;;0.40;99.90;;;;;;4971738;28;20031;-76
2022/01/09 01:00:55;;;;;;;107.82;50.60;;;0.40;99.90;;;;;;4971938;28;20038;-75
2022/01/09 01:03:21;;;;;;;90.15;41.20;;;0.50;99.90;;;;;;4972076;28;20027;-75
2022/01/09 01:05:47;;;;;;;71.78;36.72;;;0.50;99.90;;;;;;4971652;28;20035;-75
2022/01/09 01:08:12;;;;;;;81.90;37.90;;;0.50;99.90;;;;;;4971844;28;20019;-75
2022/01/09 01:10:38;;;;;;;85.65;41.40;;;0.50;99.90;;;;;;4971212;28;20052;-76
2022/01/09 01:13:05;;;;;;;87.70;41.00;;;0.50;99.90;;;;;;4971542;28;20085;-75
2022/01/09 01:15:31;;;;;;;75.00;36.38;;;0.50;99.90;;;;;;4971319;28;20027;-75
2022/01/09 01:17:57;;;;;;;82.53;36.88;;;0.50;99.90;;;;;;4971580;28;20416;-75
2022/01/09 01:20:23;;;;;;;94.65;42.08;;;0.50;99.90;;;;;;4971403;28;20485;-76
2022/01/09 01:22:52;;;;;;;82.97;37.00;;;0.50;99.90;;;;;;4971494;28;20018;-75
2022/01/09 01:25:21;;;;;;;118.18;48.60;;;0.50;99.90;;;;;;4971250;28;20022;-75
2022/01/09 01:27:47;;;;;;;105.40;46.13;;;0.50;99.90;;;;;;4969231;28;20042;-76
2022/01/09 01:30:14;;;;;;;94.45;42.65;;;0.60;99.90;;;;;;4971398;28;20111;-75
2022/01/09 01:32:41;;;;;;;84.53;39.65;;;0.60;99.90;;;;;;4971171;28;20037;-75
2022/01/09 01:35:07;;;;;;;80.47;38.17;;;0.50;99.90;;;;;;4971125;28;20582;-75
2022/01/09 01:37:34;;;;;;;188.07;70.50;;;0.50;99.90;;;;;;4971151;28;20098;-76
2022/01/09 01:40:00;;;;;;;83.30;38.13;;;0.50;99.90;;;;;;4971151;28;20077;-76
2022/01/09 01:42:25;;;;;;;85.20;35.83;;;0.50;99.90;;;;;;4969891;28;20519;-75
2022/01/09 01:44:51;;;;;;;86.30;39.67;;;0.50;99.90;;;;;;4971588;28;20019;-76
2022/01/09 01:47:19;;;;;;;167.32;62.13;;;0.50;99.90;;;;;;4971101;28;20039;-75
2022/01/09 01:49:46;;;;;;;76.72;36.13;;;0.50;99.90;;;;;;4968590;28;20027;-75
2022/01/09 01:52:15;;;;;;;95.40;40.83;;;0.50;99.90;;;;;;4970987;28;20462;-75
2022/01/09 01:54:42;;;;;;;85.10;37.40;;;0.60;99.90;;;;;;4970837;28;20099;-75
2022/01/09 01:57:09;;;;;;;71.47;32.15;;;0.60;99.90;;;;;;4971026;28;20019;-75
2022/01/09 01:59:35;;;;;;;90.82;37.47;;;0.50;99.90;;;;;;4970961;28;20023;-76
2022/01/09 02:02:01;;;;;;;109.47;44.67;;;0.50;99.90;;;;;;4971153;28;20382;-76
2022/01/09 02:04:27;;;;;;;77.38;37.30;;;0.50;99.90;;;;;;4971061;28;20035;-74
2022/01/09 02:06:55;;;;;;;90.47;41.55;;;0.50;99.90;;;;;;4971308;28;20488;-75
2022/01/09 02:09:21;;;;;;;95.57;44.28;;;0.50;99.90;;;;;;4971306;28;20458;-74
2022/01/09 02:11:46;;;;;;;91.03;41.45;;;0.40;99.90;;;;;;4971606;28;20211;-74
2022/01/09 02:14:12;;;;;;;84.28;36.97;;;0.40;99.90;;;;;;4970897;28;20112;-74
2022/01/09 02:16:43;;;;;;;73.88;35.28;;;0.40;99.90;;;;;;4971286;28;20466;-75
2022/01/09 02:19:13;;;;;;;77.75;37.85;;;0.40;99.90;;;;;;4971153;28;20027;-74
2022/01/09 02:21:45;;;;;;;70.15;34.20;;;0.40;99.90;;;;;;4971008;28;20039;-75
2022/01/09 02:24:15;;;;;;;85.30;38.55;;;0.40;99.90;;;;;;4971069;28;20080;-75
2022/01/09 02:26:41;;;;;;;63.22;29.35;;;0.40;99.90;;;;;;4971164;28;20047;-75
2022/01/09 02:29:07;;;;;;;85.47;35.78;;;0.30;99.90;;;;;;4970908;28;20768;-75
2022/01/09 02:31:34;;;;;;;64.88;31.92;;;0.30;99.90;;;;;;4970879;28;20039;-75
2022/01/09 02:34:01;;;;;;;77.60;36.47;;;0.30;99.90;;;;;;4974441;28;20085;-75
2022/01/09 02:36:26;;;;;;;98.80;44.13;;;0.30;99.90;;;;;;4974433;28;20034;-75
2022/01/09 02:38:52;;;;;;;79.10;40.00;;;0.30;99.90;;;;;;4974199;28;20424;-75
2022/01/09 02:41:18;;;;;;;103.75;45.83;;;0.30;99.90;;;;;;4974244;28;20559;-75
2022/01/09 02:43:44;;;;;;;92.95;41.55;;;0.30;99.90;;;;;;4974366;28;20055;-75
2022/01/09 02:46:28;;;;;;;84.45;37.95;;;0.10;99.90;;;;;;4974035;28;20469;-74
2022/01/09 02:48:54;;;;;;;83.57;39.20;;;0.10;99.90;;;;;;4974246;28;20049;-74
2022/01/09 02:51:20;;;;;;;77.00;36.22;;;0.10;99.90;;;;;;4973993;28;20051;-75
2022/01/09 02:53:49;;;;;;;75.53;36.55;;;0.10;99.90;;;;;;4974320;28;20351;-75
2022/01/09 02:56:15;;;;;;;89.57;40.33;;;0.00;99.90;;;;;;4973777;28;20027;-75
2022/01/09 02:58:42;;;;;;;92.22;40.42;;;0.00;99.90;;;;;;4974181;28;20081;-75
2022/01/09 03:01:10;;;;;;;82.80;38.85;;;0.00;99.90;;;;;;4974087;28;20045;-75
2022/01/09 03:03:36;;;;;;;81.20;35.35;;;0.00;99.90;;;;;;4973953;28;20019;-75
2022/01/09 03:06:03;;;;;;;81.60;36.08;;;0.00;99.90;;;;;;4974061;28;20031;-74
2022/01/09 03:08:29;;;;;;;93.63;40.35;;;0.10;99.90;;;;;;4973973;28;20035;-74
2022/01/09 03:10:55;;;;;;;82.22;35.35;;;0.00;99.90;;;;;;4973842;28;20027;-74
2022/01/09 03:13:21;;;;;;;74.03;34.47;;;0.00;99.90;;;;;;4973587;28;20080;-74
2022/01/09 03:15:47;;;;;;;73.10;35.30;;;0.00;99.90;;;;;;4973999;28;20030;-75
2022/01/09 03:18:13;;;;;;;95.15;40.80;;;0.00;99.90;;;;;;4973682;28;20030;-75
2022/01/09 03:20:40;;;;;;;89.35;40.17;;;0.00;99.90;;;;;;4973809;28;20042;-75
2022/01/09 03:23:06;;;;;;;79.05;36.25;;;0.00;99.90;;;;;;4974007;28;20034;-75
2022/01/09 03:25:32;;;;;;;91.82;41.03;;;0.00;99.90;;;;;;4974096;28;20077;-75
2022/01/09 03:27:59;;;;;;;125.80;52.38;;;0.00;99.90;;;;;;4974385;28;20030;-74
2022/01/09 03:30:25;;;;;;;95.55;42.20;;;0.00;99.90;;;;;;4974058;28;20474;-74
2022/01/09 03:32:53;;;;;;;80.60;37.88;;;0.00;99.90;;;;;;4974164;28;20027;-74
2022/01/09 03:35:22;;;;;;;82.63;39.83;;;0.00;99.90;;;;;;4974258;28;20114;-74
2022/01/09 03:37:49;;;;;;;87.82;41.08;;;0.00;99.90;;;;;;4973759;28;20035;-74
2022/01/09 03:40:26;;;;;;;105.78;47.90;;;-0.10;99.90;;;;;;4974313;28;20027;-74
2022/01/09 03:42:52;;;;;;;108.13;51.13;;;-0.10;99.90;;;;;;4973494;28;20410;-75
2022/01/09 03:45:19;;;;;;;100.03;47.45;;;-0.10;99.90;;;;;;4973148;28;20453;-75
2022/01/09 03:47:44;;;;;;;103.93;48.10;;;-0.10;99.90;;;;;;4974210;28;20077;-74
2022/01/09 03:50:13;;;;;;;126.63;50.92;;;-0.20;99.90;;;;;;4973741;28;20038;-75
2022/01/09 03:52:40;;;;;;;122.57;48.72;;;-0.20;99.90;;;;;;4973175;28;20458;-74
2022/01/09 03:55:09;;;;;;;118.50;45.95;;;-0.30;99.90;;;;;;4973399;28;20031;-75
2022/01/09 03:57:35;;;;;;;110.95;45.17;;;-0.30;99.90;;;;;;4973740;28;20027;-74
2022/01/09 04:00:00;;;;;;;113.25;45.45;;;-0.30;99.90;;;;;;4973841;28;20035;-74
2022/01/09 04:02:26;;;;;;;106.95;43.83;;;-0.30;99.90;;;;;;4973596;28;20030;-75
2022/01/09 04:04:52;;;;;;;98.93;44.75;;;-0.40;99.90;;;;;;4974227;28;20526;-75
2022/01/09 04:07:18;;;;;;;107.03;46.22;;;-0.40;99.90;;;;;;4973480;28;20031;-74
2022/01/09 04:09:45;;;;;;;112.70;48.63;;;-0.40;99.90;;;;;;4973217;28;20042;-75
2022/01/09 04:12:15;;;;;;;113.78;50.65;;;-0.50;99.90;;;;;;4973382;28;20088;-74
2022/01/09 04:14:48;;;;;;;111.90;49.88;;;-0.50;99.90;;;;;;4973387;28;20487;-74
2022/01/09 04:17:27;;;;;;;123.35;52.22;;;-0.50;99.90;;;;;;4973726;28;20035;-74
2022/01/09 04:19:53;;;;;;;117.38;51.53;;;-0.50;99.90;;;;;;4973508;28;20081;-74
2022/01/09 04:22:19;;;;;;;105.85;47.72;;;-0.60;99.90;;;;;;4973527;28;20462;-75
2022/01/09 04:24:44;;;;;;;120.55;52.75;;;-0.60;99.90;;;;;;4973729;28;20035;-75
2022/01/09 04:27:10;;;;;;;132.48;59.97;;;-0.70;99.90;;;;;;4973348;28;20070;-74
2022/01/09 04:29:36;;;;;;;137.20;64.20;;;-0.70;99.90;;;;;;4973057;28;20113;-74
2022/01/09 04:32:03;;;;;;;152.88;69.28;;;-0.70;99.90;;;;;;4973359;28;20105;-74
2022/01/09 04:34:29;;;;;;;234.48;101.22;;;-0.80;99.90;;;;;;4973140;28;20031;-75
2022/01/09 04:36:58;;;;;;;226.48;96.60;;;-0.80;99.90;;;;;;4973650;28;20050;-75
2022/01/09 04:39:24;;;;;;;211.05;92.10;;;-0.80;99.90;;;;;;4973189;28;20122;-75
2022/01/09 04:41:50;;;;;;;183.23;81.75;;;-0.80;99.90;;;;;;4972733;28;20106;-75
2022/01/09 04:44:16;;;;;;;164.18;75.97;;;-0.80;99.90;;;;;;4973292;28;20055;-74
2022/01/09 04:46:48;;;;;;;170.18;76.75;;;-0.80;99.90;;;;;;4973370;28;20450;-75
2022/01/09 04:49:14;;;;;;;173.68;81.32;;;-0.90;99.90;;;;;;4972567;28;20041;-75
2022/01/09 04:51:40;;;;;;;157.57;75.43;;;-0.90;99.90;;;;;;4972953;28;20113;-74
2022/01/09 04:54:06;;;;;;;219.07;96.68;;;-0.90;99.90;;;;;;4973133;28;20022;-74
2022/01/09 04:56:32;;;;;;;191.18;85.78;;;-0.90;99.90;;;;;;4972407;28;20022;-73
2022/01/09 04:58:58;;;;;;;198.82;90.30;;;-0.90;99.90;;;;;;4973033;28;20038;-75
2022/01/09 05:01:24;;;;;;;188.82;85.32;;;-0.90;99.90;;;;;;4973003;28;20037;-74
2022/01/09 05:03:49;;;;;;;172.25;77.05;;;-1.00;99.90;;;;;;4972751;28;20359;-74
2022/01/09 05:06:15;;;;;;;182.73;82.65;;;-1.00;99.90;;;;;;4972315;28;20085;-74
2022/01/09 05:08:41;;;;;;;182.68;80.28;;;-1.00;99.90;;;;;;4972504;28;20351;-74
2022/01/09 05:11:07;;;;;;;156.00;73.35;;;-1.10;99.90;;;;;;4972774;28;20203;-74
2022/01/09 05:13:32;;;;;;;157.30;72.57;;;-1.10;99.90;;;;;;4972521;28;20034;-74
2022/01/09 05:16:00;;;;;;;148.82;69.90;;;-1.10;99.90;;;;;;4972624;28;20026;-74
2022/01/09 05:18:25;;;;;;;130.85;62.67;;;-1.10;99.90;;;;;;4972704;28;20033;-74
2022/01/09 05:20:51;;;;;;;132.15;60.10;;;-1.20;99.90;;;;;;4972420;28;20394;-75
2022/01/09 05:23:17;;;;;;;123.38;59.30;;;-1.20;99.90;;;;;;4971899;28;20030;-74
2022/01/09 05:25:43;;;;;;;133.18;60.13;;;-1.20;99.90;;;;;;4972484;28;20031;-74
2022/01/09 05:28:09;;;;;;;138.13;62.40;;;-1.20;99.90;;;;;;4972560;28;20454;-74
2022/01/09 05:30:35;;;;;;;133.20;61.15;;;-1.20;99.90;;;;;;4972373;28;20046;-74
2022/01/09 05:33:01;;;;;;;123.45;57.38;;;-1.30;99.90;;;;;;4972404;28;20034;-74
2022/01/09 05:35:27;;;;;;;130.55;60.30;;;-1.20;99.90;;;;;;4972467;28;20027;-74
2022/01/09 05:37:53;;;;;;;115.35;53.67;;;-1.30;99.90;;;;;;4972328;28;20492;-74
2022/01/09 05:40:19;;;;;;;120.28;55.45;;;-1.30;99.90;;;;;;4972036;28;20481;-74
2022/01/09 05:42:47;;;;;;;119.93;53.58;;;-1.30;99.90;;;;;;4971475;28;20047;-74
2022/01/09 05:45:16;;;;;;;118.07;55.80;;;-1.40;99.90;;;;;;4972519;28;20027;-74
2022/01/09 05:47:42;;;;;;;137.77;61.75;;;-1.30;99.90;;;;;;4971861;28;20038;-74
2022/01/09 05:50:08;;;;;;;155.18;71.03;;;-1.40;99.90;;;;;;4971851;28;20039;-73
2022/01/09 05:52:34;;;;;;;175.15;72.38;;;-1.30;99.90;;;;;;4972151;28;20481;-74
2022/01/09 05:55:00;;;;;;;174.63;79.18;;;-1.30;99.90;;;;;;4972139;28;20034;-75
2022/01/09 05:57:25;;;;;;;193.15;85.57;;;-1.30;99.90;;;;;;4972506;28;20027;-74
2022/01/09 05:59:51;;;;;;;189.63;85.30;;;-1.30;99.90;;;;;;4971213;28;20074;-75
2022/01/09 06:02:17;;;;;;;202.05;87.07;;;-1.40;99.90;;;;;;4972090;28;20023;-75
2022/01/09 06:04:43;;;;;;;204.07;93.10;;;-1.40;99.90;;;;;;4971739;28;20073;-75
2022/01/09 06:07:08;;;;;;;235.35;101.40;;;-1.40;99.90;;;;;;4971169;28;20031;-74
2022/01/09 06:09:34;;;;;;;243.57;105.72;;;-1.40;99.90;;;;;;4971916;28;20072;-74
2022/01/09 06:12:00;;;;;;;240.55;111.15;;;-1.40;99.90;;;;;;4971746;28;20034;-74
2022/01/09 06:14:25;;;;;;;244.55;112.63;;;-1.30;99.90;;;;;;4972016;28;20038;-73
2022/01/09 06:16:51;;;;;;;245.68;114.18;;;-1.40;99.90;;;;;;4971663;28;20031;-74
2022/01/09 06:19:17;;;;;;;273.55;128.93;;;-1.40;99.90;;;;;;4971279;28;20038;-73
2022/01/09 06:21:43;;;;;;;269.92;124.22;;;-1.40;99.90;;;;;;4971639;28;20420;-74
2022/01/09 06:24:09;;;;;;;321.50;144.85;;;-1.40;99.90;;;;;;4971835;28;20039;-74
2022/01/09 06:26:35;;;;;;;328.08;160.63;;;-1.40;99.90;;;;;;4971477;28;20052;-75
2022/01/09 06:29:00;;;;;;;331.05;157.23;;;-1.40;99.90;;;;;;4971570;28;20081;-74
2022/01/09 06:31:26;;;;;;;305.48;145.45;;;-1.40;99.90;;;;;;4971569;28;20042;-73
2022/01/09 06:33:52;;;;;;;304.63;142.85;;;-1.50;99.90;;;;;;4971410;28;20065;-74
2022/01/09 06:36:18;;;;;;;309.75;149.55;;;-1.50;99.90;;;;;;4971677;28;20355;-74
2022/01/09 06:38:44;;;;;;;326.00;149.82;;;-1.40;99.90;;;;;;4971186;28;20508;-73
2022/01/09 06:41:10;;;;;;;312.50;144.40;;;-1.50;99.90;;;;;;4971422;28;20072;-74
2022/01/09 06:43:36;;;;;;;308.75;144.82;;;-1.40;99.90;;;;;;4969821;28;20061;-73
2022/01/09 06:46:01;;;;;;;302.17;141.70;;;-1.40;99.90;;;;;;4971942;28;20041;-74
2022/01/09 06:48:27;;;;;;;311.50;148.23;;;-1.40;99.90;;;;;;4971195;28;20087;-74
2022/01/09 06:50:53;;;;;;;284.42;137.35;;;-1.40;99.90;;;;;;4971282;28;20063;-73
2022/01/09 06:53:19;;;;;;;296.40;143.73;;;-1.30;99.90;;;;;;4971361;28;20106;-72
2022/01/09 06:55:45;;;;;;;292.83;144.98;;;-1.30;99.90;;;;;;4970546;28;20031;-73
2022/01/09 06:58:11;;;;;;;310.30;147.13;;;-1.30;99.90;;;;;;4971070;28;20033;-74
2022/01/09 07:00:37;;;;;;;335.42;164.13;;;-1.20;99.90;;;;;;4971206;28;20034;-74
2022/01/09 07:03:03;;;;;;;397.20;198.32;;;-1.20;99.90;;;;;;4971199;28;20454;-74
2022/01/09 07:05:29;;;;;;;428.25;211.35;;;-1.10;99.90;;;;;;4971035;28;20034;-74
2022/01/09 07:07:54;;;;;;;453.33;221.00;;;-1.10;99.90;;;;;;4970871;28;20559;-72
2022/01/09 07:10:20;;;;;;;481.23;229.68;;;-0.70;99.90;;;;;;4971201;28;20057;-74
2022/01/09 07:12:46;;;;;;;461.27;227.68;;;-0.30;99.90;;;;;;4970850;28;20023;-73
2022/01/09 07:15:12;;;;;;;490.98;239.35;;;-0.10;99.90;;;;;;4970874;28;20118;-73
2022/01/09 07:17:38;;;;;;;457.17;231.85;;;0.10;99.90;;;;;;4971327;28;20031;-73
2022/01/09 07:20:04;;;;;;;450.42;224.18;;;0.30;99.90;;;;;;4974445;28;20089;-74
2022/01/09 07:22:30;;;;;;;438.25;233.18;;;0.40;99.90;;;;;;4974414;28;20041;-74
2022/01/09 07:24:56;;;;;;;465.45;238.48;;;0.60;99.90;;;;;;4974494;28;20031;-73
2022/01/09 07:27:22;;;;;;;443.15;232.68;;;0.70;99.90;;;;;;4974401;28;20480;-73
2022/01/09 07:29:48;;;;;;;449.55;237.13;;;0.90;99.90;;;;;;4973719;28;20061;-74
2022/01/09 07:32:14;;;;;;;574.72;295.70;;;1.10;99.90;;;;;;4973638;28;20394;-74
2022/01/09 07:34:40;;;;;;;581.13;312.15;;;1.20;99.90;;;;;;4974162;28;20104;-73
2022/01/09 07:37:06;;;;;;;551.92;285.33;;;1.30;99.90;;;;;;4973877;28;20070;-74
2022/01/09 07:39:31;;;;;;;478.98;252.13;;;1.40;99.90;;;;;;4973955;28;20054;-73
2022/01/09 07:41:58;;;;;;;459.67;240.77;;;1.40;99.90;;;;;;4973787;28;20047;-73
2022/01/09 07:44:24;;;;;;;456.55;237.27;;;1.60;99.90;;;;;;4974022;28;20027;-73
2022/01/09 07:46:50;;;;;;;410.58;210.25;;;1.60;99.90;;;;;;4973800;28;20389;-73
2022/01/09 07:49:16;;;;;;;331.60;167.70;;;1.60;99.90;;;;;;4973669;28;20035;-74
2022/01/09 07:51:42;;;;;;;272.52;133.63;;;1.40;99.90;;;;;;4973722;28;20042;-74
2022/01/09 07:54:07;;;;;;;244.45;119.70;;;1.40;99.90;;;;;;4974024;28;20039;-74
2022/01/09 07:56:33;;;;;;;238.00;116.70;;;1.40;99.90;;;;;;4974328;28;20027;-73
2022/01/09 07:58:59;;;;;;;270.10;131.13;;;1.50;99.90;;;;;;4974026;28;20062;-74
2022/01/09 08:01:25;;;;;;;308.48;145.55;;;1.50;99.90;;;;;;4973613;28;20113;-73
2022/01/09 08:03:50;;;;;;;271.33;131.18;;;1.40;99.90;;;;;;4973797;28;20114;-73
2022/01/09 08:06:16;;;;;;;304.60;146.32;;;1.50;99.90;;;;;;4973247;28;20051;-73
2022/01/09 08:08:42;;;;;;;292.73;140.00;;;1.70;99.90;;;;;;4973833;28;20415;-74
2022/01/09 08:11:07;;;;;;;278.25;135.50;;;1.80;99.90;;;;;;4973220;28;20444;-74
2022/01/09 08:13:33;;;;;;;275.70;124.63;;;1.90;99.90;;;;;;4973521;28;20050;-75
2022/01/09 08:15:59;;;;;;;253.82;116.82;;;1.90;99.90;;;;;;4973385;28;20034;-74
2022/01/09 08:18:25;;;;;;;234.23;110.88;;;2.00;99.90;;;;;;4973830;28;20035;-75
2022/01/09 08:20:50;;;;;;;248.60;115.88;;;2.00;99.90;;;;;;4973466;28;20110;-74
2022/01/09 08:23:17;;;;;;;363.95;163.13;;;2.00;99.90;;;;;;4972890;28;20077;-74
2022/01/09 08:25:44;;;;;;;403.17;214.30;;;2.10;99.90;;;;;;4973208;28;20031;-74
2022/01/09 08:28:10;;;;;;;566.83;296.63;;;2.00;99.90;;;;;;4973441;28;20023;-74
2022/01/09 08:30:36;;;;;;;531.33;265.67;;;2.10;99.90;;;;;;4972724;28;20118;-74
2022/01/09 08:33:02;;;;;;;270.95;134.07;;;2.30;99.90;;;;;;4973387;28;20446;-75
2022/01/09 08:35:27;;;;;;;278.45;129.73;;;2.30;99.90;;;;;;4973142;28;20031;-75
2022/01/09 08:37:53;;;;;;;423.15;189.18;;;2.30;99.90;;;;;;4973371;28;20034;-75
2022/01/09 08:40:22;;;;;;;725.42;369.45;;;2.30;99.90;;;;;;4972637;28;20045;-74
2022/01/09 08:42:49;;;;;;;1756.60;784.65;;;2.50;99.90;;;;;;4972264;28;20501;-74
2022/01/09 08:45:16;;;;;;;1999.90;893.50;;;2.60;99.90;;;;;;4973331;28;20030;-74
2022/01/09 08:47:43;;;;;;;1999.90;926.13;;;2.50;99.90;;;;;;4972701;28;20023;-75
2022/01/09 08:50:10;;;;;;;732.20;441.73;;;2.60;99.90;;;;;;4973107;28;20039;-75
2022/01/09 08:52:35;;;;;;;239.43;127.43;;;2.70;99.90;;;;;;4973032;28;20018;-73
2022/01/09 08:55:03;;;;;;;164.70;74.18;;;2.70;99.90;;;;;;4973094;28;20031;-73
2022/01/09 08:57:29;;;;;;;152.55;65.28;;;2.70;99.90;;;;;;4972546;28;20027;-73
2022/01/09 08:59:55;;;;;;;128.52;56.83;;;2.60;99.90;;;;;;4972319;28;20034;-73
2022/01/09 09:02:21;;;;;;;112.88;53.47;;;2.70;99.90;;;;;;4973081;28;20088;-73
2022/01/09 09:04:46;;;;;;;153.90;67.55;;;2.80;99.90;;;;;;4972981;28;20389;-73
2022/01/09 09:07:14;;;;;;;107.60;49.78;;;2.80;99.90;;;;;;4972681;28;20073;-74
2022/01/09 09:09:40;;;;;;;90.10;40.85;;;2.90;99.90;;;;;;4973129;28;20023;-74
2022/01/09 09:12:06;;;;;;;133.55;62.75;;;2.80;99.90;;;;;;4972222;28;20023;-75
2022/01/09 09:14:32;;;;;;;120.72;57.17;;;2.90;99.90;;;;;;4972585;28;20081;-74
2022/01/09 09:16:58;;;;;;;121.88;56.17;;;3.00;99.90;;;;;;4972090;28;20035;-74
2022/01/09 09:19:23;;;;;;;138.32;59.20;;;3.10;99.90;;;;;;4972672;28;20377;-74
2022/01/09 09:21:50;;;;;;;121.90;57.28;;;3.20;99.90;;;;;;4972580;28;20087;-74
2022/01/09 09:24:15;;;;;;;114.47;52.80;;;3.20;99.90;;;;;;4972762;28;20027;-74
2022/01/09 09:26:41;;;;;;;84.80;44.13;;;3.20;99.90;;;;;;4972519;28;20035;-74
2022/01/09 09:29:07;;;;;;;110.45;52.97;;;3.30;99.90;;;;;;4972213;28;20399;-74
2022/01/09 09:31:34;;;;;;;137.02;58.40;;;3.40;99.90;;;;;;4972185;28;20122;-74
2022/01/09 09:34:00;;;;;;;122.97;57.92;;;3.50;99.90;;;;;;4971906;28;20019;-75
2022/01/09 09:36:26;;;;;;;107.85;49.10;;;3.60;99.90;;;;;;4972231;28;20034;-74
2022/01/09 09:38:52;;;;;;;102.97;50.30;;;3.80;99.90;;;;;;4972374;28;20026;-74
2022/01/09 09:41:23;;;;;;;91.70;46.92;;;4.20;99.90;;;;;;4972450;28;20043;-75
2022/01/09 09:43:49;;;;;;;82.18;41.33;;;4.30;99.90;;;;;;4971812;28;20387;-75
2022/01/09 09:46:15;;;;;;;134.27;63.08;;;4.70;99.90;;;;;;4972305;28;20101;-75
2022/01/09 09:48:42;;;;;;;192.25;89.88;;;4.90;99.90;;;;;;4972159;28;20023;-75
2022/01/09 09:51:07;;;;;;;122.75;59.72;;;5.20;99.90;;;;;;4971419;28;20053;-75
2022/01/09 09:53:33;;;;;;;158.32;71.68;;;5.60;99.90;;;;;;4971903;28;20451;-74
2022/01/09 09:55:59;;;;;;;320.48;165.30;;;6.00;99.90;;;;;;4972381;28;20031;-74
2022/01/09 09:58:27;;;;;;;221.23;106.68;;;5.90;99.90;;;;;;4972274;28;20377;-73
2022/01/09 10:00:54;;;;;;;181.98;90.05;;;6.10;99.90;;;;;;4972390;28;20110;-74
2022/01/09 10:03:31;;;;;;;131.90;66.70;;;5.80;99.90;;;;;;4972017;28;20110;-73
2022/01/09 10:05:57;;;;;;;101.07;51.85;;;6.00;99.90;;;;;;4972212;28;20040;-74
2022/01/09 10:08:38;;;;;;;68.80;35.60;;;6.20;99.90;;;;;;4971268;28;20484;-74
2022/01/09 10:11:18;;;;;;;74.20;40.88;;;6.30;99.90;;;;;;4971969;28;20042;-74
2022/01/09 10:13:44;;;;;;;73.85;37.10;;;6.50;99.90;;;;;;4971272;28;20431;-74
2022/01/09 10:16:11;;;;;;;86.07;44.03;;;7.00;99.90;;;;;;4971791;28;20450;-74
2022/01/09 10:18:40;;;;;;;82.15;44.35;;;7.00;99.90;;;;;;4970976;28;20068;-74
2022/01/09 10:21:12;;;;;;;226.27;102.68;;;6.90;99.90;;;;;;4971761;28;20081;-74
2022/01/09 10:24:02;;;;;;;251.10;99.18;;;7.20;99.90;;;;;;4971360;28;20499;-74
2022/01/09 10:26:31;;;;;;;127.18;61.58;;;7.00;99.90;;;;;;4970097;28;20038;-73
2022/01/09 10:28:58;;;;;;;73.95;36.75;;;7.10;99.90;;;;;;4972033;28;20027;-73
2022/01/09 10:31:24;;;;;;;92.72;45.70;;;7.20;99.90;;;;;;4971795;28;20069;-73
2022/01/09 10:34:08;;;;;;;80.20;42.95;;;7.80;99.90;;;;;;4972073;28;20404;-73
2022/01/09 10:36:41;;;;;;;72.18;42.72;;;7.90;99.90;;;;;;4972121;28;20448;-74
2022/01/09 10:39:14;;;;;;;59.50;32.63;;;8.30;99.90;;;;;;4971945;28;20026;-74
2022/01/09 10:42:01;;;;;;;76.93;38.20;;;8.40;99.90;;;;;;4971481;28;20046;-74
2022/01/09 10:44:34;;;;;;;54.60;29.65;;;8.70;99.60;;;;;;4970418;28;20030;-74
2022/01/09 10:47:12;;;;;;;89.03;42.00;;;9.00;97.10;;;;;;4971114;28;20034;-74
2022/01/09 10:49:43;;;;;;;63.80;34.60;;;8.60;96.60;;;;;;4969681;28;20031;-74
2022/01/09 10:52:31;;;;;;;82.30;46.60;;;9.00;98.30;;;;;;4969768;28;20146;-75
2022/01/09 10:55:03;;;;;;;115.28;62.65;;;9.40;96.00;;;;;;4975122;28;20027;-75
2022/01/09 10:57:37;;;;;;;92.38;48.85;;;9.50;94.40;;;;;;4975264;28;20035;-74
2022/01/09 11:00:11;;;;;;;68.35;38.97;;;9.60;98.80;;;;;;4974768;28;20062;-73
2022/01/09 11:02:37;;;;;;;107.18;57.10;;;9.40;96.40;;;;;;4975011;28;20019;-75
2022/01/09 11:05:04;;;;;;;68.00;33.90;;;9.40;97.40;;;;;;4975162;28;20492;-75
2022/01/09 11:07:30;;;;;;;211.52;104.90;;;9.20;94.80;;;;;;4974532;28;20027;-75
2022/01/09 11:09:58;;;;;;;113.43;59.35;;;8.70;94.40;;;;;;4974873;28;20058;-72
2022/01/09 11:12:31;;;;;;;65.57;35.25;;;9.10;96.10;;;;;;4974979;28;20027;-72
2022/01/09 11:15:02;;;;;;;204.15;114.18;;;8.80;95.10;;;;;;4974609;28;20117;-74
2022/01/09 11:17:28;;;;;;;170.75;107.78;;;9.20;99.90;;;;;;4974854;28;20030;-73
2022/01/09 11:19:54;;;;;;;86.97;44.47;;;9.00;96.30;;;;;;4973238;28;20405;-74
2022/01/09 11:22:21;;;;;;;87.68;52.88;;;9.20;97.30;;;;;;4974300;28;20027;-73
2022/01/09 11:25:21;;;;;;;88.82;52.17;;;8.80;99.90;;;;;;4974174;28;20027;-74
2022/01/09 11:28:12;;;;;;;63.28;39.75;;;8.60;99.90;;;;;;4974291;28;20050;-74
2022/01/09 11:31:15;;;;;;;56.63;34.80;;;8.40;99.90;;;;;;4974269;28;20031;-73
2022/01/09 11:33:50;;;;;;;57.55;34.55;;;8.00;99.90;;;;;;4974167;28;20066;-74
2022/01/09 11:36:40;;;;;;;57.60;32.40;;;8.30;99.90;;;;;;4974836;28;20038;-74
2022/01/09 11:39:12;;;;;;;50.63;29.20;;;7.50;99.90;;;;;;4974319;28;20113;-74
2022/01/09 11:41:43;;;;;;;42.93;23.93;;;7.00;99.90;;;;;;4974226;28;20023;-74
2022/01/09 11:44:15;;;;;;;45.15;26.83;;;7.00;99.90;;;;;;4974686;28;20264;-74
2022/01/09 11:47:05;;;;;;;106.00;48.90;;;6.80;99.90;;;;;;4974545;28;20019;-74
2022/01/09 11:49:58;;;;;;;46.30;25.00;;;6.90;99.90;;;;;;4974259;28;20065;-74
2022/01/09 11:52:28;;;;;;;58.72;30.98;;;6.70;99.90;;;;;;4984200;28;20129;-74
2022/01/09 11:55:00;;;;;;;54.47;32.83;;;6.50;99.90;;;;;;4973813;28;20026;-74
2022/01/09 11:57:44;;;;;;;71.65;39.97;;;6.20;99.90;;;;;;4974056;28;20134;-74
2022/01/09 12:00:29;;;;;;;42.90;26.67;;;6.40;99.90;;;;;;4974195;28;20074;-74
2022/01/09 12:02:56;;;;;;;55.00;31.25;;;6.10;99.90;;;;;;4974008;28;20359;-74
2022/01/09 12:05:21;;;;;;;56.00;32.38;;;6.30;99.90;;;;;;4972928;28;20252;-74
2022/01/09 12:07:47;;;;;;;49.22;25.60;;;6.40;99.90;;;;;;4974214;28;20132;-74
2022/01/09 12:10:32;;;;;;;53.08;28.05;;;6.00;99.90;;;;;;4973942;28;20061;-75
2022/01/09 12:12:59;;;;;;;48.33;27.95;;;5.50;99.90;;;;;;4973653;28;20443;-73
2022/01/09 12:15:42;;;;;;;51.45;29.42;;;5.20;99.90;;;;;;4974076;28;20050;-73
2022/01/09 12:18:44;;;;;;;50.47;26.15;;;5.10;99.90;;;;;;4973841;28;20035;-73
2022/01/09 12:21:31;;;;;;;48.03;24.80;;;4.90;99.90;;;;;;4973822;28;20034;-73
2022/01/09 12:24:33;;;;;;;56.90;25.77;;;4.70;99.90;;;;;;4973732;28;20034;-73
2022/01/09 12:27:19;;;;;;;61.15;31.92;;;4.50;99.90;;;;;;4973797;28;20033;-75
2022/01/09 12:29:46;;;;;;;58.38;29.38;;;4.40;99.90;;;;;;4973136;28;20031;-73